Main page
METAR-TAF:

METAR-TAF

Airports :

Melilla Airport

Melilla, Spain

latitude: 35-17N, longitude: 002-57W, elevation: 47 m

Current weather observation

The report was made 26 minutes ago, at 16:00 UTC
Wind 7 kt from the West, varying between West/Southwest and West/Northwest
Temperature 15°C
Humidity 63%
Pressure 1016 hPa
Visibility 10 km or more
Few clouds at a height of 2400 ft

METAR: GEML 171600Z 28007KT 240V300 9999 FEW024 15/08 Q1016

Time: 17:26 (16:26 UTC)

Forecast

The report was made 2 hours and 26 minutes ago, at 14:00 UTC
Forecast valid from 17 at 15 UTC to 18 at 15 UTC
Wind 6 kt from the West
Visibility 10 km or more
Few clouds at a height of 3000 ft

TAF: GEML 171400Z 1715/1815 27006KT 9999 FEW030 TX17/1814Z TN09/1807Z

Weather observations and forecasts of more than 4000 airports (METAR and TAF reports).

The available stations are represented by yellow and red dots on the map.

Hover mouse over dot to see the name of the station.

Then click to see weather observations and forecasts.

To change the map : click on the green buttons with a black cross to zoom in, on the green button with a dash to zoom out, or on the green arrows for adjacent maps.


METAR-TAF: